Time;durP1;ratioP1;P1;durP2;ratioP2;P2;SDS_P1;SDS_P2;PMS_P1;PMS_P2;Temp;Humidity;BMP_temperature;BMP_pressure;BME280_temperature;BME280_humidity;BME280_pressure;Samples;Min_cycle;Max_cycle;Signal;HPM_P1;HPM_P2
2023/04/17 00:01:33;;;;;;;25.10;20.77;;;8.10;1.00;;;;;;5038801;28;20625;-47
2023/04/17 00:03:58;;;;;;;26.80;23.50;;;8.10;1.00;;;;;;5039644;28;20424;-44
2023/04/17 00:06:26;;;;;;;25.90;22.87;;;8.00;1.00;;;;;;5039238;28;20189;-46
2023/04/17 00:08:51;;;;;;;25.30;21.53;;;8.00;1.00;;;;;;5036470;28;20213;-46
2023/04/17 00:11:17;;;;;;;24.70;18.90;;;8.30;1.00;;;;;;5038514;28;20432;-45
2023/04/17 00:13:43;;;;;;;29.70;24.80;;;8.60;1.00;;;;;;5038114;28;20347;-43
2023/04/17 00:16:12;;;;;;;28.23;23.50;;;8.70;1.00;;;;;;5038678;28;20182;-44
2023/04/17 00:18:38;;;;;;;26.97;23.00;;;8.70;1.00;;;;;;5037788;28;20558;-42
2023/04/17 00:21:04;;;;;;;26.93;22.73;;;8.50;1.00;;;;;;5038867;28;20429;-43
2023/04/17 00:23:30;;;;;;;25.40;22.80;;;8.50;1.00;;;;;;5053958;28;20427;-43
2023/04/17 00:25:55;;;;;;;25.07;21.90;;;8.40;1.00;;;;;;5038352;28;20437;-43
2023/04/17 00:28:21;;;;;;;24.10;21.60;;;8.30;1.00;;;;;;5038288;28;20203;-44
2023/04/17 00:30:47;;;;;;;24.80;22.27;;;8.30;1.00;;;;;;5039087;28;20187;-43
2023/04/17 00:33:13;;;;;;;25.63;22.83;;;8.20;1.00;;;;;;5038274;28;20189;-44
2023/04/17 00:35:38;;;;;;;24.80;22.20;;;8.20;1.00;;;;;;5037987;28;20517;-45
2023/04/17 00:38:04;;;;;;;28.27;23.53;;;8.10;1.00;;;;;;5037831;28;20190;-45
2023/04/17 00:40:30;;;;;;;28.10;24.73;;;8.10;1.00;;;;;;5038044;28;20468;-44
2023/04/17 00:42:59;;;;;;;26.43;22.30;;;8.10;1.00;;;;;;5038180;28;20516;-43
2023/04/17 00:45:25;;;;;;;25.23;20.50;;;8.10;1.00;;;;;;5036745;28;20556;-44
2023/04/17 00:47:51;;;;;;;22.07;19.17;;;8.10;1.00;;;;;;5038302;28;20573;-44
2023/04/17 00:50:16;;;;;;;23.80;21.23;;;8.10;1.00;;;;;;5037414;28;20245;-44
2023/04/17 00:52:43;;;;;;;28.40;20.67;;;8.00;1.00;;;;;;5036261;28;20436;-44
2023/04/17 00:55:09;;;;;;;25.33;21.90;;;8.00;1.00;;;;;;5036111;28;20191;-42
2023/04/17 00:57:35;;;;;;;26.50;23.60;;;8.00;1.00;;;;;;5037185;28;20501;-43
2023/04/17 01:00:01;;;;;;;27.50;22.90;;;8.00;1.00;;;;;;5038170;28;20501;-43
2023/04/17 01:02:26;;;;;;;26.50;22.03;;;8.00;1.00;;;;;;5037273;28;20775;-44
2023/04/17 01:04:52;;;;;;;27.40;24.50;;;8.00;1.00;;;;;;5037745;28;20178;-45
2023/04/17 01:07:18;;;;;;;23.47;20.27;;;8.00;1.00;;;;;;5038878;28;20202;-42
2023/04/17 01:09:43;;;;;;;26.00;22.23;;;8.00;1.00;;;;;;5037668;28;20214;-43
2023/04/17 01:12:19;;;;;;;26.53;22.53;;;8.00;1.00;;;;;;5037463;28;20201;-43
2023/04/17 01:14:46;;;;;;;24.23;21.30;;;8.00;1.00;;;;;;5038210;28;20185;-43
2023/04/17 01:17:13;;;;;;;24.63;22.00;;;8.00;1.00;;;;;;5037228;28;20438;-44
2023/04/17 01:19:40;;;;;;;25.10;22.20;;;8.00;1.00;;;;;;5038496;28;20441;-43
2023/04/17 01:22:05;;;;;;;24.40;19.67;;;8.00;1.00;;;;;;5037693;28;20421;-43
2023/04/17 01:24:32;;;;;;;25.67;21.67;;;8.00;1.00;;;;;;5036862;28;20502;-43
2023/04/17 01:26:58;;;;;;;24.27;20.23;;;8.00;1.00;;;;;;5037323;28;20585;-42
2023/04/17 01:32:45;;;;;;;24.30;21.67;;;8.00;1.00;;;;;;5037797;28;20177;-43
2023/04/17 01:35:11;;;;;;;23.37;20.87;;;8.00;1.00;;;;;;5037333;28;20429;-42
2023/04/17 01:37:36;;;;;;;22.83;20.37;;;8.00;1.00;;;;;;5037651;28;20181;-43
2023/04/17 01:40:05;;;;;;;26.03;21.30;;;7.90;1.00;;;;;;5037498;28;20277;-43
2023/04/17 01:42:32;;;;;;;24.10;21.03;;;7.90;1.00;;;;;;5036838;28;20174;-42
2023/04/17 01:44:58;;;;;;;24.00;20.80;;;7.90;1.00;;;;;;5037154;28;20475;-44
2023/04/17 01:47:23;;;;;;;24.90;21.33;;;7.90;1.00;;;;;;5037489;28;20405;-42
2023/04/17 01:49:49;;;;;;;24.60;21.60;;;7.90;1.00;;;;;;5035623;28;20182;-42
2023/04/17 01:52:14;;;;;;;22.70;19.37;;;7.90;1.00;;;;;;5036908;28;20166;-43
2023/04/17 01:54:40;;;;;;;23.53;21.00;;;7.90;1.00;;;;;;5037841;28;20189;-43
2023/04/17 01:57:05;;;;;;;28.17;22.50;;;7.90;1.00;;;;;;5037355;28;20178;-43
2023/04/17 01:59:31;;;;;;;25.70;21.27;;;7.90;1.00;;;;;;5037309;28;20489;-42
2023/04/17 02:01:57;;;;;;;27.23;21.43;;;7.90;1.00;;;;;;5037220;28;20170;-42
2023/04/17 02:04:22;;;;;;;23.83;21.23;;;7.90;1.00;;;;;;5036175;28;20210;-42
2023/04/17 02:06:48;;;;;;;24.60;21.90;;;7.90;1.00;;;;;;5037026;28;20232;-44
2023/04/17 02:09:13;;;;;;;24.90;20.67;;;7.90;1.00;;;;;;5035206;28;20218;-42
2023/04/17 02:11:39;;;;;;;24.97;22.07;;;7.90;1.00;;;;;;5035527;28;20567;-43
2023/04/17 02:14:05;;;;;;;24.80;20.90;;;7.90;1.00;;;;;;5036213;28;20251;-43
2023/04/17 02:16:30;;;;;;;24.50;21.90;;;7.90;1.00;;;;;;5036580;28;20433;-45
2023/04/17 02:18:56;;;;;;;27.13;21.47;;;7.90;1.00;;;;;;5036517;28;20186;-43
2023/04/17 02:21:23;;;;;;;30.53;22.10;;;7.80;1.00;;;;;;5052607;28;20323;-43
2023/04/17 02:23:48;;;;;;;22.90;20.50;;;7.90;1.00;;;;;;5055527;28;20193;-43
2023/04/17 02:26:14;;;;;;;25.90;21.27;;;7.90;1.00;;;;;;5054604;28;20487;-44
2023/04/17 02:28:43;;;;;;;23.97;21.10;;;7.90;1.00;;;;;;5053479;28;20326;-43
2023/04/17 02:31:09;;;;;;;24.90;20.37;;;7.90;1.00;;;;;;5053267;28;20897;-44
2023/04/17 02:33:35;;;;;;;25.83;20.27;;;7.90;1.00;;;;;;5053677;28;20834;-45
2023/04/17 02:36:02;;;;;;;24.10;21.33;;;7.90;1.00;;;;;;5054413;28;20428;-43
2023/04/17 02:38:30;;;;;;;27.27;22.23;;;7.90;1.00;;;;;;5055431;28;20931;-44
2023/04/17 02:40:57;;;;;;;24.13;20.90;;;7.90;1.00;;;;;;5055071;28;20919;-42
2023/04/17 02:43:22;;;;;;;25.53;21.63;;;7.80;1.00;;;;;;5055098;28;20444;-45
2023/04/17 02:45:48;;;;;;;27.53;21.97;;;7.80;1.00;;;;;;5055655;28;20509;-43
2023/04/17 02:48:14;;;;;;;27.10;21.70;;;7.80;1.00;;;;;;5055726;28;20215;-43
2023/04/17 02:50:40;;;;;;;25.90;22.47;;;7.80;1.00;;;;;;5056584;28;20170;-42
2023/04/17 02:53:06;;;;;;;22.87;20.20;;;7.80;1.00;;;;;;5055575;28;20426;-44
2023/04/17 02:55:31;;;;;;;28.13;23.67;;;7.80;1.00;;;;;;5055216;28;20252;-43
2023/04/17 02:57:57;;;;;;;29.80;23.83;;;7.80;1.00;;;;;;5056367;28;20192;-43
2023/04/17 03:00:25;;;;;;;27.70;23.67;;;7.80;1.00;;;;;;5055427;28;20212;-45
2023/04/17 03:02:51;;;;;;;30.23;23.50;;;7.80;1.00;;;;;;5058559;28;20258;-43
2023/04/17 03:05:19;;;;;;;27.63;23.80;;;7.80;1.00;;;;;;5058831;28;20439;-44
2023/04/17 03:07:44;;;;;;;26.27;22.60;;;7.80;1.00;;;;;;5057288;28;20465;-44
2023/04/17 03:10:10;;;;;;;28.70;24.50;;;7.80;1.00;;;;;;5058431;28;20825;-44
2023/04/17 03:12:36;;;;;;;29.30;24.50;;;7.80;1.00;;;;;;5059117;28;20266;-44
2023/04/17 03:15:01;;;;;;;29.00;23.50;;;7.80;1.00;;;;;;5059723;28;20192;-42
2023/04/17 03:17:27;;;;;;;26.20;22.50;;;7.80;1.00;;;;;;5059641;28;20567;-46
2023/04/17 03:19:53;;;;;;;24.83;21.43;;;7.80;1.00;;;;;;5060182;28;20424;-47
2023/04/17 03:22:18;;;;;;;28.87;25.63;;;7.80;1.00;;;;;;5059221;28;20216;-43
2023/04/17 03:24:44;;;;;;;30.00;24.30;;;7.80;1.00;;;;;;5058668;28;20192;-44
2023/04/17 03:27:09;;;;;;;27.50;23.77;;;7.80;1.00;;;;;;5059843;28;20245;-42
2023/04/17 03:29:35;;;;;;;28.03;24.03;;;7.70;1.00;;;;;;5060228;28;20262;-43
2023/04/17 03:32:01;;;;;;;27.60;23.80;;;7.70;1.00;;;;;;5059947;28;20412;-43
2023/04/17 03:34:27;;;;;;;27.77;22.47;;;7.70;1.00;;;;;;5060369;28;20615;-42
2023/04/17 03:36:53;;;;;;;27.80;24.23;;;7.70;1.00;;;;;;5060065;28;20265;-45
2023/04/17 03:39:19;;;;;;;28.47;24.20;;;7.70;1.00;;;;;;5059898;28;20675;-41
2023/04/17 03:41:45;;;;;;;30.60;25.03;;;7.70;1.00;;;;;;5059393;28;20173;-41
2023/04/17 03:44:11;;;;;;;26.10;22.50;;;7.70;1.00;;;;;;5059391;28;20436;-43
2023/04/17 03:46:37;;;;;;;29.97;26.77;;;7.70;1.00;;;;;;5059985;28;20204;-42
2023/04/17 03:49:03;;;;;;;31.27;24.53;;;7.60;1.00;;;;;;5059427;28;20896;-44
2023/04/17 03:51:28;;;;;;;28.33;25.30;;;7.70;1.00;;;;;;5058226;28;20170;-43
2023/04/17 03:53:54;;;;;;;30.63;25.37;;;7.70;1.00;;;;;;5057851;28;20166;-43
2023/04/17 03:56:20;;;;;;;30.83;26.67;;;7.70;1.00;;;;;;5056878;28;20499;-43
2023/04/17 03:58:46;;;;;;;28.40;24.60;;;7.70;1.00;;;;;;5056785;28;20181;-43
2023/04/17 04:01:13;;;;;;;29.03;23.70;;;7.70;1.00;;;;;;5056376;28;20428;-43
2023/04/17 04:03:39;;;;;;;27.00;23.33;;;7.60;1.00;;;;;;5055498;28;20240;-53
2023/04/17 04:06:06;;;;;;;31.30;25.47;;;7.70;1.00;;;;;;5054271;28;20464;-42
2023/04/17 04:08:32;;;;;;;28.33;23.07;;;7.70;1.00;;;;;;5055170;28;20482;-46
2023/04/17 04:10:58;;;;;;;28.97;24.80;;;7.70;1.00;;;;;;5055365;28;20424;-44
2023/04/17 04:13:24;;;;;;;28.03;24.27;;;7.70;1.00;;;;;;5054694;28;20416;-43
2023/04/17 04:15:50;;;;;;;28.13;24.20;;;7.60;1.00;;;;;;5057159;28;20455;-42
2023/04/17 04:18:16;;;;;;;28.43;23.50;;;7.60;1.00;;;;;;5057895;28;20248;-43
2023/04/17 04:20:41;;;;;;;28.33;24.80;;;7.60;1.00;;;;;;5056240;28;20339;-44
2023/04/17 04:23:07;;;;;;;30.73;25.90;;;7.60;1.00;;;;;;5056968;28;20447;-45
2023/04/17 04:25:33;;;;;;;28.10;23.90;;;7.60;1.00;;;;;;5056354;28;20181;-43
2023/04/17 04:28:00;;;;;;;29.50;23.50;;;7.60;1.00;;;;;;5055870;28;20229;-43
2023/04/17 04:30:26;;;;;;;28.30;24.70;;;7.60;1.00;;;;;;5057226;28;20256;-44
2023/04/17 04:32:52;;;;;;;28.63;24.33;;;7.60;1.00;;;;;;5056579;28;20408;-43
2023/04/17 04:35:17;;;;;;;28.00;22.80;;;7.60;1.00;;;;;;5056439;28;20423;-44
2023/04/17 04:37:45;;;;;;;26.93;22.07;;;7.70;1.00;;;;;;5056641;28;20487;-43
2023/04/17 04:40:11;;;;;;;25.27;21.40;;;7.70;1.00;;;;;;5056514;28;20265;-43
2023/04/17 04:42:48;;;;;;;24.03;21.53;;;7.70;1.00;;;;;;5056010;28;20408;-45
2023/04/17 04:45:14;;;;;;;29.03;23.03;;;7.70;1.00;;;;;;5055378;28;20420;-43
2023/04/17 04:47:40;;;;;;;26.40;20.90;;;7.70;1.00;;;;;;5053809;28;20474;-44
2023/04/17 04:50:06;;;;;;;26.97;21.70;;;7.70;1.00;;;;;;5053921;28;20432;-44
2023/04/17 04:52:32;;;;;;;23.97;19.73;;;7.70;1.00;;;;;;5053531;28;20192;-46
2023/04/17 04:54:57;;;;;;;25.40;20.83;;;7.70;1.00;;;;;;5055112;28;21039;-45
2023/04/17 04:57:23;;;;;;;25.57;21.10;;;7.70;1.00;;;;;;5054146;28;20181;-45
2023/04/17 04:59:49;;;;;;;23.43;20.37;;;7.70;1.00;;;;;;5054525;28;20186;-46
2023/04/17 05:02:15;;;;;;;23.20;18.60;;;7.70;1.00;;;;;;5053610;28;20181;-43
2023/04/17 05:04:40;;;;;;;25.13;21.10;;;7.70;1.00;;;;;;5053422;28;20687;-43
2023/04/17 05:07:06;;;;;;;26.00;21.70;;;7.70;1.00;;;;;;5052714;28;20594;-45
2023/04/17 05:09:32;;;;;;;27.20;20.90;;;7.70;1.00;;;;;;5053227;28;20206;-45
2023/04/17 05:11:58;;;;;;;25.90;21.07;;;7.80;1.00;;;;;;5050727;28;20210;-44
2023/04/17 05:14:24;;;;;;;23.90;20.90;;;7.80;1.00;;;;;;5048532;28;20432;-45
2023/04/17 05:16:49;;;;;;;28.83;22.97;;;7.80;1.00;;;;;;5048461;28;20208;-45
2023/04/17 05:19:15;;;;;;;27.33;22.50;;;7.80;1.00;;;;;;5046000;28;20637;-45
2023/04/17 05:21:41;;;;;;;27.97;22.10;;;7.80;1.00;;;;;;5043217;28;20242;-45
2023/04/17 05:24:06;;;;;;;25.00;21.97;;;7.80;1.00;;;;;;5049118;28;20400;-44
2023/04/17 05:26:32;;;;;;;25.47;21.90;;;7.80;1.00;;;;;;5046459;28;20306;-46
2023/04/17 05:28:58;;;;;;;24.57;21.20;;;7.90;1.00;;;;;;5036149;28;20222;-44
2023/04/17 05:31:23;;;;;;;24.67;21.97;;;7.90;1.00;;;;;;5033259;28;20181;-44
2023/04/17 05:33:49;;;;;;;22.87;20.43;;;7.90;1.00;;;;;;5034977;28;20445;-43
2023/04/17 05:36:14;;;;;;;25.80;21.67;;;7.90;1.00;;;;;;5032999;28;20260;-45
2023/04/17 05:38:40;;;;;;;26.87;22.30;;;7.90;1.00;;;;;;5032471;28;20178;-44
2023/04/17 05:41:08;;;;;;;24.10;21.00;;;7.90;1.00;;;;;;5030675;28;20442;-45
2023/04/17 05:43:34;;;;;;;24.63;20.70;;;7.90;1.00;;;;;;5027530;28;20186;-44
2023/04/17 05:46:00;;;;;;;24.53;20.70;;;7.90;1.00;;;;;;5031057;28;20460;-44
2023/04/17 05:48:25;;;;;;;26.10;20.80;;;7.90;1.00;;;;;;5031090;28;20446;-43
2023/04/17 05:50:51;;;;;;;22.70;19.73;;;7.90;1.00;;;;;;5031636;28;20569;-43
2023/04/17 05:53:17;;;;;;;25.13;20.83;;;7.90;1.00;;;;;;5032940;28;20208;-45
2023/04/17 05:55:42;;;;;;;24.13;20.40;;;7.90;1.00;;;;;;5033054;28;20204;-44
2023/04/17 05:58:08;;;;;;;24.40;20.07;;;7.90;1.00;;;;;;5031220;28;20445;-43
2023/04/17 06:00:34;;;;;;;26.80;22.53;;;7.90;1.00;;;;;;5029417;28;20179;-43
2023/04/17 06:03:02;;;;;;;24.57;19.70;;;7.90;1.00;;;;;;5030459;28;20625;-44
2023/04/17 06:05:29;;;;;;;24.33;21.67;;;7.90;1.00;;;;;;5031859;28;20269;-45
2023/04/17 06:07:55;;;;;;;25.70;20.60;;;8.00;1.00;;;;;;5034471;28;20854;-43
2023/04/17 06:10:20;;;;;;;24.73;21.60;;;8.00;1.00;;;;;;5032627;28;20572;-43
2023/04/17 06:12:46;;;;;;;22.03;19.30;;;8.00;1.00;;;;;;5031773;28;20381;-44
2023/04/17 06:15:11;;;;;;;24.70;19.83;;;8.10;1.00;;;;;;5030630;28;20194;-45
2023/04/17 06:17:38;;;;;;;21.90;18.87;;;8.00;1.00;;;;;;5030606;28;20178;-43
2023/04/17 06:20:08;;;;;;;22.73;19.27;;;8.00;1.00;;;;;;5031998;28;20171;-43
2023/04/17 06:22:34;;;;;;;24.33;20.10;;;8.00;1.00;;;;;;5030955;28;20421;-46
2023/04/17 06:25:00;;;;;;;23.10;20.53;;;8.00;1.00;;;;;;5032103;28;20425;-46
2023/04/17 06:27:26;;;;;;;21.60;18.50;;;8.10;1.00;;;;;;5030646;28;20460;-43
2023/04/17 06:29:51;;;;;;;23.27;20.50;;;8.10;1.00;;;;;;5032948;28;20245;-46
2023/04/17 06:32:17;;;;;;;23.80;20.50;;;8.10;1.00;;;;;;5033883;28;20567;-45
2023/04/17 06:34:42;;;;;;;22.77;19.30;;;8.20;1.00;;;;;;5032817;28;20561;-44
2023/04/17 06:37:08;;;;;;;23.40;19.97;;;8.20;1.00;;;;;;5032159;28;20316;-46
2023/04/17 06:39:33;;;;;;;23.10;19.00;;;8.20;1.00;;;;;;5030251;28;20584;-43
2023/04/17 06:41:59;;;;;;;28.97;23.00;;;8.20;1.00;;;;;;5032373;28;20178;-45
2023/04/17 06:44:24;;;;;;;23.63;21.10;;;8.20;1.00;;;;;;5031202;28;20560;-51
2023/04/17 06:46:51;;;;;;;19.63;16.77;;;8.20;1.00;;;;;;5034871;28;20214;-46
2023/04/17 06:49:17;;;;;;;20.00;16.97;;;8.20;1.00;;;;;;5032026;28;20222;-45
2023/04/17 06:51:44;;;;;;;17.53;15.63;;;8.20;1.00;;;;;;5031965;28;20428;-43
2023/04/17 06:54:10;;;;;;;18.17;15.50;;;8.20;1.00;;;;;;5029624;28;20560;-45
2023/04/17 06:56:36;;;;;;;17.40;15.70;;;8.30;1.00;;;;;;5030335;28;20409;-44
2023/04/17 06:59:02;;;;;;;18.17;16.27;;;8.30;1.00;;;;;;5031231;28;20502;-42
2023/04/17 07:01:30;;;;;;;16.80;14.00;;;8.30;1.00;;;;;;5030572;28;20165;-43
2023/04/17 07:03:55;;;;;;;18.00;16.13;;;8.30;1.00;;;;;;5031652;28;20471;-43
2023/04/17 07:06:22;;;;;;;17.57;15.77;;;8.30;1.00;;;;;;5030953;28;20421;-44
2023/04/17 07:08:48;;;;;;;16.67;14.87;;;8.30;1.00;;;;;;5031546;28;20217;-43
2023/04/17 07:11:14;;;;;;;16.53;14.77;;;8.40;1.00;;;;;;5031132;28;20413;-43
2023/04/17 07:13:40;;;;;;;16.93;15.33;;;8.40;1.00;;;;;;5033588;28;20520;-43
2023/04/17 07:16:05;;;;;;;17.47;15.60;;;8.40;1.00;;;;;;5034437;28;20316;-43
2023/04/17 07:18:31;;;;;;;16.27;13.93;;;8.40;1.00;;;;;;5031042;28;20190;-44
2023/04/17 07:20:57;;;;;;;15.60;14.00;;;8.50;1.00;;;;;;5033359;28;20178;-45
2023/04/17 07:23:23;;;;;;;16.93;15.13;;;8.50;1.00;;;;;;5032030;28;20194;-43
2023/04/17 07:25:49;;;;;;;17.10;15.00;;;8.50;1.00;;;;;;5029449;28;20404;-44
2023/04/17 07:28:15;;;;;;;24.97;22.37;;;8.40;1.00;;;;;;5030081;28;20993;-45
2023/04/17 07:30:41;;;;;;;19.03;17.07;;;8.40;1.00;;;;;;5028036;28;20191;-44
2023/04/17 07:33:07;;;;;;;17.77;15.87;;;8.40;1.00;;;;;;5028906;28;20490;-43
2023/04/17 07:35:32;;;;;;;17.73;15.93;;;8.40;1.00;;;;;;5029050;28;20486;-44
2023/04/17 07:38:00;;;;;;;19.00;16.90;;;8.40;1.00;;;;;;5029960;28;20648;-43
2023/04/17 07:40:27;;;;;;;18.47;16.50;;;8.40;1.00;;;;;;5030928;28;20197;-44
2023/04/17 07:42:54;;;;;;;19.90;17.33;;;8.40;1.00;;;;;;5027875;28;20427;-44
2023/04/17 07:45:20;;;;;;;17.40;15.50;;;8.40;1.00;;;;;;5031812;28;20421;-43
2023/04/17 07:47:46;;;;;;;20.87;17.73;;;8.30;1.00;;;;;;5033151;28;20667;-43
2023/04/17 07:50:12;;;;;;;17.77;15.87;;;8.30;1.00;;;;;;5036607;28;20181;-44
2023/04/17 07:52:37;;;;;;;20.57;17.77;;;8.30;1.00;;;;;;5037378;28;20183;-44
2023/04/17 07:55:03;;;;;;;18.57;16.57;;;8.30;1.00;;;;;;5036818;28;20178;-43
2023/04/17 07:57:29;;;;;;;18.23;16.27;;;8.30;1.00;;;;;;5037567;28;20247;-43
2023/04/17 07:59:55;;;;;;;21.13;18.63;;;8.30;1.00;;;;;;5037748;28;20467;-46
2023/04/17 08:02:21;;;;;;;17.13;15.33;;;8.30;1.00;;;;;;5037536;28;20398;-44
2023/04/17 08:04:46;;;;;;;17.57;15.77;;;8.40;1.00;;;;;;5036601;28;20452;-43
2023/04/17 08:07:13;;;;;;;17.37;15.63;;;8.40;1.00;;;;;;5036486;28;20187;-44
2023/04/17 08:09:39;;;;;;;15.73;14.13;;;8.50;1.00;;;;;;5035647;28;20340;-44
2023/04/17 08:12:05;;;;;;;16.73;15.10;;;8.60;1.00;;;;;;5036291;28;20468;-46
2023/04/17 08:14:31;;;;;;;15.60;13.70;;;8.70;1.00;;;;;;5034618;28;20591;-45
2023/04/17 08:16:57;;;;;;;17.93;16.03;;;8.80;1.00;;;;;;5032692;28;20516;-44
2023/04/17 08:19:22;;;;;;;14.57;13.07;;;8.90;1.00;;;;;;5036235;28;20706;-43
2023/04/17 08:21:48;;;;;;;14.80;13.17;;;9.00;1.00;;;;;;5035999;28;20275;-44
2023/04/17 08:24:15;;;;;;;14.37;12.97;;;9.10;1.00;;;;;;5035590;28;20248;-44
2023/04/17 08:26:40;;;;;;;12.50;11.20;;;9.20;1.00;;;;;;5033880;28;20461;-45
2023/04/17 08:29:07;;;;;;;10.90;9.80;;;9.40;1.00;;;;;;5032906;28;20467;-44
2023/04/17 08:31:35;;;;;;;11.07;8.90;;;9.50;1.00;;;;;;5034650;28;20418;-43
2023/04/17 08:34:04;;;;;;;10.43;5.83;;;9.60;99.90;;;;;;5032987;28;20421;-47
2023/04/17 08:36:30;;;;;;;11.23;6.80;;;10.20;1.00;;;;;;5033490;28;20405;-48
2023/04/17 08:38:56;;;;;;;8.57;7.57;;;10.90;1.00;;;;;;5031587;28;20908;-46
2023/04/17 08:41:26;;;;;;;9.90;9.00;;;11.60;1.00;;;;;;5033657;28;20580;-41
2023/04/17 08:43:52;;;;;;;8.97;8.03;;;11.60;99.90;;;;;;5033471;28;20413;-43
2023/04/17 08:46:21;;;;;;;9.50;8.50;;;11.40;99.90;;;;;;5034441;28;20417;-43
2023/04/17 08:48:46;;;;;;;8.70;7.80;;;11.20;99.90;;;;;;5035044;28;20471;-42
2023/04/17 08:51:12;;;;;;;7.67;6.97;;;10.90;1.00;;;;;;5034381;28;20429;-42
2023/04/17 08:53:38;;;;;;;9.20;8.30;;;10.70;1.00;;;;;;5033132;28;20185;-43
2023/04/17 08:56:05;;;;;;;9.33;8.40;;;10.60;1.00;;;;;;5033227;28;20668;-43
2023/04/17 08:58:32;;;;;;;9.23;8.33;;;10.40;1.00;;;;;;5035033;28;20213;-43
2023/04/17 09:01:10;;;;;;;10.40;9.40;;;10.30;43.50;;;;;;5034695;28;20429;-41
2023/04/17 09:03:40;;;;;;;12.07;10.87;;;10.20;99.90;;;;;;5035298;28;20516;-42
2023/04/17 09:06:08;;;;;;;12.00;10.80;;;10.20;99.90;;;;;;5034130;28;20425;-42
2023/04/17 09:08:34;;;;;;;11.00;10.00;;;10.10;99.90;;;;;;5032213;28;20691;-43
2023/04/17 09:10:59;;;;;;;10.80;9.77;;;10.10;99.90;;;;;;5035736;28;20863;-43
2023/04/17 09:13:26;;;;;;;10.47;9.50;;;10.00;99.90;;;;;;5036379;28;20527;-44
2023/04/17 09:16:05;;;;;;;12.00;10.90;;;9.90;99.90;;;;;;5031592;28;20255;-44
2023/04/17 09:18:32;;;;;;;14.53;13.13;;;9.80;99.90;;;;;;5032279;28;20417;-43
2023/04/17 09:20:59;;;;;;;13.60;12.40;;;9.70;99.90;;;;;;5032952;28;20460;-45
2023/04/17 09:23:26;;;;;;;12.77;11.50;;;9.60;99.90;;;;;;5031196;28;20491;-44
2023/04/17 09:26:14;;;;;;;13.87;12.53;;;9.60;99.90;;;;;;5033325;28;20503;-43
2023/04/17 09:28:42;;;;;;;9.33;8.43;;;9.50;99.90;;;;;;5032304;28;20469;-43
2023/04/17 09:31:29;;;;;;;11.73;10.53;;;9.50;99.90;;;;;;5032918;28;20485;-43
2023/04/17 09:34:11;;;;;;;10.43;9.37;;;9.60;99.90;;;;;;5033673;28;20679;-45
2023/04/17 09:36:38;;;;;;;11.03;9.93;;;9.70;99.90;;;;;;5033033;28;20664;-43
2023/04/17 09:39:15;;;;;;;10.60;9.60;;;9.70;99.90;;;;;;5034124;28;20440;-43
2023/04/17 09:41:41;;;;;;;11.00;9.90;;;9.80;99.90;;;;;;5033205;28;20413;-46
2023/04/17 09:44:08;;;;;;;11.90;10.80;;;10.00;99.90;;;;;;5035193;28;20401;-44
2023/04/17 09:46:46;;;;;;;11.20;10.10;;;10.10;99.90;;;;;;5034063;28;20171;-45
2023/04/17 09:49:28;;;;;;;10.70;9.60;;;10.30;99.90;;;;;;5030107;28;20468;-42
2023/04/17 09:51:55;;;;;;;10.13;8.97;;;10.50;99.90;;;;;;5012271;28;20525;-45
2023/04/17 09:54:21;;;;;;;12.60;9.47;;;10.80;99.90;;;;;;5031604;28;20421;-43
2023/04/17 09:56:48;;;;;;;9.10;8.30;;;11.10;99.90;;;;;;5031204;28;20413;-43
2023/04/17 09:59:14;;;;;;;9.30;8.40;;;11.40;99.90;;;;;;5032688;28;20892;-45
2023/04/17 10:01:41;;;;;;;14.97;13.47;;;11.50;61.80;;;;;;5031031;28;20440;-43
2023/04/17 10:04:07;;;;;;;10.87;9.87;;;11.70;21.20;;;;;;5032195;28;20724;-45
2023/04/17 10:06:34;;;;;;;14.53;13.03;;;11.80;1.00;;;;;;5034848;28;20555;-44
2023/04/17 10:09:00;;;;;;;27.43;24.50;;;11.70;99.90;;;;;;5033281;28;20213;-43
2023/04/17 10:11:37;;;;;;;20.23;18.13;;;11.60;1.00;;;;;;5032488;28;20414;-43
2023/04/17 10:14:39;;;;;;;9.67;8.73;;;11.50;1.00;;;;;;5033804;28;20162;-47
2023/04/17 10:17:24;;;;;;;8.47;7.57;;;11.40;1.00;;;;;;5000830;28;20856;-45
2023/04/17 10:19:49;;;;;;;8.97;8.03;;;11.40;1.00;;;;;;5035093;28;20425;-43
2023/04/17 10:22:16;;;;;;;7.60;6.90;;;11.40;1.00;;;;;;5035749;28;20440;-43
2023/04/17 10:24:43;;;;;;;13.87;12.47;;;11.40;1.00;;;;;;5033773;28;20502;-44
2023/04/17 10:27:31;;;;;;;25.73;23.10;;;11.30;1.00;;;;;;5031281;28;20465;-43
2023/04/17 10:30:03;;;;;;;19.00;17.10;;;11.50;1.00;;;;;;5020394;28;20497;-45
2023/04/17 10:32:29;;;;;;;15.53;14.03;;;11.80;1.00;;;;;;5033377;28;20712;-43
2023/04/17 10:34:59;;;;;;;9.40;8.60;;;12.20;1.00;;;;;;5032041;28;20425;-45
2023/04/17 10:37:49;;;;;;;8.43;7.73;;;12.50;1.00;;;;;;5031678;28;20469;-47
2023/04/17 10:40:38;;;;;;;8.07;7.10;;;12.80;1.00;;;;;;5022835;28;20855;-43
2023/04/17 10:43:13;;;;;;;6.70;6.10;;;12.90;99.90;;;;;;5033014;28;20953;-44
2023/04/17 10:46:04;;;;;;;6.23;5.63;;;12.70;1.00;;;;;;5032448;28;20475;-43
2023/04/17 10:48:41;;;;;;;7.93;7.13;;;12.50;99.90;;;;;;5028715;28;20514;-43
2023/04/17 10:51:27;;;;;;;7.73;6.50;;;12.30;99.90;;;;;;5029630;28;20850;-43
2023/04/17 10:54:00;;;;;;;7.10;6.50;;;12.00;99.90;;;;;;5034292;28;20417;-43
2023/04/17 10:56:34;;;;;;;7.30;6.70;;;11.70;1.00;;;;;;5035600;28;20453;-44
2023/04/17 10:59:10;;;;;;;6.67;5.97;;;11.30;3.60;;;;;;5032520;28;20481;-43
2023/04/17 11:01:54;;;;;;;7.60;6.90;;;11.10;99.90;;;;;;5033657;28;20417;-43
2023/04/17 11:04:30;;;;;;;8.77;7.87;;;10.90;99.90;;;;;;5032853;28;20827;-44
2023/04/17 11:06:56;;;;;;;8.17;7.17;;;10.80;1.00;;;;;;5034238;28;20422;-44
2023/04/17 11:09:23;;;;;;;7.93;7.23;;;10.80;1.00;;;;;;5030932;28;20825;-43
2023/04/17 11:11:49;;;;;;;9.13;8.27;;;10.90;1.00;;;;;;5014297;28;20193;-47
2023/04/17 11:14:17;;;;;;;8.60;7.80;;;11.00;1.00;;;;;;5030718;28;20909;-43
2023/04/17 11:16:44;;;;;;;10.80;8.80;;;11.00;1.00;;;;;;5031453;28;20513;-43
2023/04/17 11:19:12;;;;;;;8.90;8.10;;;11.10;1.00;;;;;;5032396;28;20456;-45
2023/04/17 11:21:48;;;;;;;11.63;10.53;;;11.20;12.60;;;;;;5032892;28;20429;-43
2023/04/17 11:24:25;;;;;;;10.37;9.33;;;11.40;1.00;;;;;;5033216;28;20433;-45
2023/04/17 11:26:51;;;;;;;9.60;8.60;;;11.50;7.20;;;;;;5036226;28;20452;-44
2023/04/17 11:29:18;;;;;;;9.27;8.37;;;11.70;1.00;;;;;;5035365;28;20476;-42
2023/04/17 11:31:45;;;;;;;9.53;8.63;;;11.90;1.00;;;;;;5033488;28;20607;-44
2023/04/17 11:34:11;;;;;;;9.30;8.40;;;12.20;1.00;;;;;;5034552;28;20762;-43
2023/04/17 11:36:37;;;;;;;8.20;7.50;;;12.50;99.90;;;;;;5035110;28;20421;-42
2023/04/17 11:39:03;;;;;;;8.90;8.00;;;12.90;99.90;;;;;;5033988;28;20443;-48
2023/04/17 11:41:38;;;;;;;8.27;7.40;;;13.70;99.90;;;;;;5035320;28;20320;-45
2023/04/17 11:44:08;;;;;;;4.47;4.07;;;14.70;1.00;;;;;;5033458;28;20417;-47
2023/04/17 11:46:34;;;;;;;5.10;4.70;;;15.70;99.90;;;;;;5033579;28;20413;-45
2023/04/17 11:49:06;;;;;;;4.30;3.90;;;16.40;99.90;;;;;;5032024;28;20500;-47
2023/04/17 11:51:31;;;;;;;4.73;4.33;;;16.90;1.00;;;;;;5034826;28;20456;-49
2023/04/17 11:53:58;;;;;;;8.53;4.97;;;17.30;99.90;;;;;;5032937;28;20424;-47
2023/04/17 11:56:28;;;;;;;3.83;3.53;;;18.20;99.90;;;;;;5035320;28;20424;-47
2023/04/17 11:58:58;;;;;;;4.63;4.23;;;18.80;99.90;;;;;;5033371;28;20413;-46
2023/04/17 12:01:25;;;;;;;4.60;3.53;;;19.10;1.70;;;;;;5034623;28;20810;-46
2023/04/17 12:03:57;;;;;;;3.13;2.83;;;19.50;1.00;;;;;;5031383;28;20444;-45
2023/04/17 12:06:23;;;;;;;3.90;3.60;;;19.90;1.00;;;;;;5033503;28;20574;-46
2023/04/17 12:08:53;;;;;;;4.77;4.20;;;20.50;1.00;;;;;;5033368;28;20993;-48
2023/04/17 12:11:31;;;;;;;4.90;4.50;;;21.10;1.00;;;;;;5033622;28;20591;-47
2023/04/17 12:13:57;;;;;;;4.80;4.40;;;21.40;1.00;;;;;;5033726;28;20742;-48
2023/04/17 12:16:24;;;;;;;4.47;4.10;;;21.60;1.00;;;;;;5035131;28;20497;-45
2023/04/17 12:18:50;;;;;;;4.97;4.57;;;21.30;1.00;;;;;;5036635;28;20453;-43
2023/04/17 12:21:16;;;;;;;4.87;4.47;;;20.80;1.00;;;;;;5037179;28;20909;-45
2023/04/17 12:23:42;;;;;;;4.90;4.47;;;20.40;1.00;;;;;;5035974;28;20668;-44
2023/04/17 12:26:07;;;;;;;7.53;5.23;;;20.20;1.00;;;;;;5038178;28;20526;-43
2023/04/17 12:28:35;;;;;;;6.00;5.50;;;20.00;1.00;;;;;;5035919;28;20483;-45
2023/04/17 12:31:03;;;;;;;7.10;6.47;;;19.10;1.00;;;;;;5037216;28;20428;-44
2023/04/17 12:33:30;;;;;;;5.97;5.47;;;18.20;1.00;;;;;;5034576;28;20437;-44
2023/04/17 12:35:56;;;;;;;7.20;6.57;;;17.60;1.00;;;;;;5036173;28;20448;-42
2023/04/17 12:38:24;;;;;;;6.30;5.70;;;16.70;1.00;;;;;;5037323;28;20421;-43
2023/04/17 12:40:50;;;;;;;6.47;5.70;;;16.00;1.00;;;;;;5036440;28;20260;-42
2023/04/17 12:43:16;;;;;;;5.80;5.30;;;15.30;99.90;;;;;;5034171;28;20795;-42
2023/04/17 12:45:44;;;;;;;6.23;5.70;;;14.60;1.00;;;;;;5033572;28;20449;-44
2023/04/17 12:48:10;;;;;;;6.67;6.07;;;14.20;1.00;;;;;;5033621;28;20225;-43
2023/04/17 12:50:42;;;;;;;7.03;6.33;;;13.70;99.90;;;;;;5035211;28;20433;-42
2023/04/17 12:53:12;;;;;;;7.17;6.57;;;13.40;1.00;;;;;;5046570;28;20845;-43